sensor_id;sensor_type;location;lat;lon;timestamp;P1;durP1;ratioP1;P2;durP2;ratioP2
43945;SDS011;29599;51.196;4.428;2022-08-19T00:01:43;36.40;;;26.08;;
43945;SDS011;29599;51.196;4.428;2022-08-19T00:04:12;40.95;;;26.25;;
43945;SDS011;29599;51.196;4.428;2022-08-19T00:06:40;40.03;;;26.95;;
43945;SDS011;29599;51.196;4.428;2022-08-19T00:09:08;38.92;;;27.70;;
43945;SDS011;29599;51.196;4.428;2022-08-19T00:11:35;36.97;;;26.23;;
43945;SDS011;29599;51.196;4.428;2022-08-19T00:14:02;38.60;;;27.55;;
43945;SDS011;29599;51.196;4.428;2022-08-19T00:16:29;37.63;;;26.25;;
43945;SDS011;29599;51.196;4.428;2022-08-19T00:18:55;36.72;;;26.30;;
43945;SDS011;29599;51.196;4.428;2022-08-19T00:21:22;41.92;;;28.67;;
43945;SDS011;29599;51.196;4.428;2022-08-19T00:23:49;37.75;;;26.23;;
43945;SDS011;29599;51.196;4.428;2022-08-19T00:26:15;41.05;;;28.35;;
43945;SDS011;29599;51.196;4.428;2022-08-19T00:28:41;43.67;;;30.17;;
43945;SDS011;29599;51.196;4.428;2022-08-19T00:31:08;46.05;;;29.00;;
43945;SDS011;29599;51.196;4.428;2022-08-19T00:33:34;43.03;;;27.77;;
43945;SDS011;29599;51.196;4.428;2022-08-19T00:36:00;45.47;;;29.25;;
43945;SDS011;29599;51.196;4.428;2022-08-19T00:38:29;40.40;;;28.40;;
43945;SDS011;29599;51.196;4.428;2022-08-19T00:40:55;45.80;;;28.98;;
43945;SDS011;29599;51.196;4.428;2022-08-19T00:43:22;39.95;;;28.02;;
43945;SDS011;29599;51.196;4.428;2022-08-19T00:45:50;42.13;;;28.65;;
43945;SDS011;29599;51.196;4.428;2022-08-19T00:48:17;43.05;;;29.52;;
43945;SDS011;29599;51.196;4.428;2022-08-19T00:50:43;46.60;;;29.55;;
43945;SDS011;29599;51.196;4.428;2022-08-19T00:53:11;50.20;;;29.98;;
43945;SDS011;29599;51.196;4.428;2022-08-19T00:55:40;46.88;;;30.85;;
43945;SDS011;29599;51.196;4.428;2022-08-19T01:00:37;45.17;;;28.38;;
43945;SDS011;29599;51.196;4.428;2022-08-19T01:03:05;48.80;;;29.00;;
43945;SDS011;29599;51.196;4.428;2022-08-19T01:05:33;42.28;;;28.80;;
43945;SDS011;29599;51.196;4.428;2022-08-19T01:08:00;44.75;;;29.30;;
43945;SDS011;29599;51.196;4.428;2022-08-19T01:12:59;43.22;;;29.75;;
43945;SDS011;29599;51.196;4.428;2022-08-19T01:15:27;43.00;;;29.05;;
43945;SDS011;29599;51.196;4.428;2022-08-19T01:18:04;42.97;;;28.92;;
43945;SDS011;29599;51.196;4.428;2022-08-19T01:20:33;47.85;;;29.48;;
43945;SDS011;29599;51.196;4.428;2022-08-19T01:22:59;43.40;;;28.20;;
43945;SDS011;29599;51.196;4.428;2022-08-19T01:25:35;44.63;;;30.10;;
43945;SDS011;29599;51.196;4.428;2022-08-19T01:28:20;47.45;;;29.65;;
43945;SDS011;29599;51.196;4.428;2022-08-19T01:30:48;44.65;;;28.92;;
43945;SDS011;29599;51.196;4.428;2022-08-19T01:33:14;49.20;;;30.65;;
43945;SDS011;29599;51.196;4.428;2022-08-19T01:35:40;44.03;;;29.63;;
43945;SDS011;29599;51.196;4.428;2022-08-19T01:38:08;43.03;;;29.02;;
43945;SDS011;29599;51.196;4.428;2022-08-19T01:40:37;47.63;;;31.73;;
43945;SDS011;29599;51.196;4.428;2022-08-19T01:43:05;49.40;;;31.80;;
43945;SDS011;29599;51.196;4.428;2022-08-19T01:45:33;42.47;;;28.13;;
43945;SDS011;29599;51.196;4.428;2022-08-19T01:48:00;40.33;;;26.83;;
43945;SDS011;29599;51.196;4.428;2022-08-19T01:50:26;39.55;;;27.40;;
43945;SDS011;29599;51.196;4.428;2022-08-19T01:52:52;40.38;;;23.73;;
43945;SDS011;29599;51.196;4.428;2022-08-19T01:55:19;35.85;;;23.80;;
43945;SDS011;29599;51.196;4.428;2022-08-19T01:57:50;38.72;;;25.05;;
43945;SDS011;29599;51.196;4.428;2022-08-19T02:00:19;41.88;;;24.73;;
43945;SDS011;29599;51.196;4.428;2022-08-19T02:02:47;39.28;;;24.83;;
43945;SDS011;29599;51.196;4.428;2022-08-19T02:05:13;37.83;;;24.90;;
43945;SDS011;29599;51.196;4.428;2022-08-19T02:07:39;37.42;;;24.00;;
43945;SDS011;29599;51.196;4.428;2022-08-19T02:10:12;40.85;;;24.67;;
43945;SDS011;29599;51.196;4.428;2022-08-19T02:12:39;43.55;;;24.92;;
43945;SDS011;29599;51.196;4.428;2022-08-19T02:15:04;36.65;;;25.00;;
43945;SDS011;29599;51.196;4.428;2022-08-19T02:17:32;43.35;;;26.80;;
43945;SDS011;29599;51.196;4.428;2022-08-19T02:19:58;40.80;;;27.27;;
43945;SDS011;29599;51.196;4.428;2022-08-19T02:22:24;40.33;;;25.85;;
43945;SDS011;29599;51.196;4.428;2022-08-19T02:24:53;40.70;;;25.88;;
43945;SDS011;29599;51.196;4.428;2022-08-19T02:27:20;47.88;;;27.95;;
43945;SDS011;29599;51.196;4.428;2022-08-19T02:29:47;45.10;;;27.88;;
43945;SDS011;29599;51.196;4.428;2022-08-19T02:32:14;42.90;;;26.95;;
43945;SDS011;29599;51.196;4.428;2022-08-19T02:34:40;40.47;;;26.17;;
43945;SDS011;29599;51.196;4.428;2022-08-19T02:37:07;42.55;;;26.77;;
43945;SDS011;29599;51.196;4.428;2022-08-19T02:39:55;41.22;;;26.40;;
43945;SDS011;29599;51.196;4.428;2022-08-19T02:42:21;42.40;;;27.27;;
43945;SDS011;29599;51.196;4.428;2022-08-19T02:44:47;41.83;;;27.27;;
43945;SDS011;29599;51.196;4.428;2022-08-19T02:47:12;44.92;;;27.55;;
43945;SDS011;29599;51.196;4.428;2022-08-19T02:49:40;47.80;;;29.52;;
43945;SDS011;29599;51.196;4.428;2022-08-19T02:52:05;48.42;;;28.52;;
43945;SDS011;29599;51.196;4.428;2022-08-19T02:54:31;44.88;;;28.23;;
43945;SDS011;29599;51.196;4.428;2022-08-19T02:56:57;46.25;;;29.30;;
43945;SDS011;29599;51.196;4.428;2022-08-19T02:59:23;46.70;;;29.65;;
43945;SDS011;29599;51.196;4.428;2022-08-19T03:01:50;46.75;;;29.30;;
43945;SDS011;29599;51.196;4.428;2022-08-19T03:04:16;43.67;;;29.15;;
43945;SDS011;29599;51.196;4.428;2022-08-19T03:06:42;47.08;;;28.25;;
43945;SDS011;29599;51.196;4.428;2022-08-19T03:09:10;44.90;;;26.90;;
43945;SDS011;29599;51.196;4.428;2022-08-19T03:11:36;51.08;;;28.58;;
43945;SDS011;29599;51.196;4.428;2022-08-19T03:14:03;45.35;;;27.98;;
43945;SDS011;29599;51.196;4.428;2022-08-19T03:16:31;42.27;;;27.47;;
43945;SDS011;29599;51.196;4.428;2022-08-19T03:18:59;48.35;;;27.88;;
43945;SDS011;29599;51.196;4.428;2022-08-19T03:21:26;44.28;;;27.33;;
43945;SDS011;29599;51.196;4.428;2022-08-19T03:23:54;46.78;;;27.50;;
43945;SDS011;29599;51.196;4.428;2022-08-19T03:26:21;43.05;;;26.13;;
43945;SDS011;29599;51.196;4.428;2022-08-19T03:28:46;40.58;;;25.08;;
43945;SDS011;29599;51.196;4.428;2022-08-19T03:31:15;42.10;;;24.40;;
43945;SDS011;29599;51.196;4.428;2022-08-19T03:33:42;49.15;;;24.70;;
43945;SDS011;29599;51.196;4.428;2022-08-19T03:38:39;42.45;;;24.25;;
43945;SDS011;29599;51.196;4.428;2022-08-19T03:43:37;45.85;;;24.48;;
43945;SDS011;29599;51.196;4.428;2022-08-19T03:46:05;38.45;;;23.17;;
43945;SDS011;29599;51.196;4.428;2022-08-19T03:48:39;38.65;;;21.92;;
43945;SDS011;29599;51.196;4.428;2022-08-19T03:51:06;37.33;;;22.00;;
43945;SDS011;29599;51.196;4.428;2022-08-19T03:53:33;33.58;;;20.40;;
43945;SDS011;29599;51.196;4.428;2022-08-19T03:55:59;40.85;;;20.48;;
43945;SDS011;29599;51.196;4.428;2022-08-19T03:58:26;34.88;;;21.13;;
43945;SDS011;29599;51.196;4.428;2022-08-19T04:00:53;34.15;;;21.13;;
43945;SDS011;29599;51.196;4.428;2022-08-19T04:03:20;33.63;;;19.95;;
43945;SDS011;29599;51.196;4.428;2022-08-19T04:05:46;33.38;;;20.60;;
43945;SDS011;29599;51.196;4.428;2022-08-19T04:08:12;38.00;;;20.70;;
43945;SDS011;29599;51.196;4.428;2022-08-19T04:10:38;38.47;;;20.73;;
43945;SDS011;29599;51.196;4.428;2022-08-19T04:13:05;33.22;;;19.35;;
43945;SDS011;29599;51.196;4.428;2022-08-19T04:15:32;32.47;;;20.15;;
43945;SDS011;29599;51.196;4.428;2022-08-19T04:18:03;35.00;;;18.52;;
43945;SDS011;29599;51.196;4.428;2022-08-19T04:20:31;35.72;;;19.90;;
43945;SDS011;29599;51.196;4.428;2022-08-19T04:22:56;33.00;;;20.58;;
43945;SDS011;29599;51.196;4.428;2022-08-19T04:25:22;33.67;;;18.75;;
43945;SDS011;29599;51.196;4.428;2022-08-19T04:27:47;39.17;;;20.75;;
43945;SDS011;29599;51.196;4.428;2022-08-19T04:30:14;29.92;;;18.38;;
43945;SDS011;29599;51.196;4.428;2022-08-19T04:32:39;41.20;;;19.42;;
43945;SDS011;29599;51.196;4.428;2022-08-19T04:35:06;39.80;;;20.33;;
43945;SDS011;29599;51.196;4.428;2022-08-19T04:37:32;36.20;;;18.85;;
43945;SDS011;29599;51.196;4.428;2022-08-19T04:39:58;33.90;;;17.58;;
43945;SDS011;29599;51.196;4.428;2022-08-19T04:42:42;35.03;;;19.10;;
43945;SDS011;29599;51.196;4.428;2022-08-19T04:45:13;29.77;;;17.98;;
43945;SDS011;29599;51.196;4.428;2022-08-19T04:47:40;34.35;;;18.45;;
43945;SDS011;29599;51.196;4.428;2022-08-19T04:50:07;38.38;;;18.48;;
43945;SDS011;29599;51.196;4.428;2022-08-19T04:52:37;32.03;;;18.27;;
43945;SDS011;29599;51.196;4.428;2022-08-19T04:55:08;28.23;;;17.90;;
43945;SDS011;29599;51.196;4.428;2022-08-19T04:57:35;33.80;;;17.23;;
43945;SDS011;29599;51.196;4.428;2022-08-19T05:00:04;26.90;;;16.48;;
43945;SDS011;29599;51.196;4.428;2022-08-19T05:02:31;31.05;;;16.65;;
43945;SDS011;29599;51.196;4.428;2022-08-19T05:04:57;27.88;;;15.50;;
43945;SDS011;29599;51.196;4.428;2022-08-19T05:07:26;27.98;;;15.75;;
43945;SDS011;29599;51.196;4.428;2022-08-19T05:09:52;26.52;;;15.57;;
43945;SDS011;29599;51.196;4.428;2022-08-19T05:12:18;27.90;;;16.08;;
43945;SDS011;29599;51.196;4.428;2022-08-19T05:14:44;31.15;;;16.52;;
43945;SDS011;29599;51.196;4.428;2022-08-19T05:17:12;29.75;;;15.52;;
43945;SDS011;29599;51.196;4.428;2022-08-19T05:19:38;26.45;;;15.02;;
43945;SDS011;29599;51.196;4.428;2022-08-19T05:22:22;27.38;;;15.00;;
43945;SDS011;29599;51.196;4.428;2022-08-19T05:24:57;28.35;;;14.65;;
43945;SDS011;29599;51.196;4.428;2022-08-19T05:27:25;34.53;;;16.40;;
43945;SDS011;29599;51.196;4.428;2022-08-19T05:29:51;30.60;;;14.27;;
43945;SDS011;29599;51.196;4.428;2022-08-19T05:32:16;26.30;;;15.02;;
43945;SDS011;29599;51.196;4.428;2022-08-19T05:34:42;29.25;;;14.45;;
43945;SDS011;29599;51.196;4.428;2022-08-19T05:37:07;25.33;;;13.80;;
43945;SDS011;29599;51.196;4.428;2022-08-19T05:39:34;27.83;;;14.02;;
43945;SDS011;29599;51.196;4.428;2022-08-19T05:42:03;27.90;;;13.63;;
43945;SDS011;29599;51.196;4.428;2022-08-19T05:44:32;21.85;;;13.57;;
43945;SDS011;29599;51.196;4.428;2022-08-19T05:47:02;23.15;;;13.23;;
43945;SDS011;29599;51.196;4.428;2022-08-19T05:49:29;22.95;;;13.63;;
43945;SDS011;29599;51.196;4.428;2022-08-19T05:51:56;26.02;;;13.48;;
43945;SDS011;29599;51.196;4.428;2022-08-19T05:54:24;22.48;;;12.50;;
43945;SDS011;29599;51.196;4.428;2022-08-19T05:56:50;25.83;;;12.15;;
43945;SDS011;29599;51.196;4.428;2022-08-19T05:59:18;23.88;;;11.43;;
43945;SDS011;29599;51.196;4.428;2022-08-19T06:01:45;23.77;;;11.27;;
43945;SDS011;29599;51.196;4.428;2022-08-19T06:04:15;20.35;;;11.07;;
43945;SDS011;29599;51.196;4.428;2022-08-19T06:06:43;19.88;;;10.20;;
43945;SDS011;29599;51.196;4.428;2022-08-19T06:09:14;23.42;;;11.73;;
43945;SDS011;29599;51.196;4.428;2022-08-19T06:11:47;26.17;;;12.35;;
43945;SDS011;29599;51.196;4.428;2022-08-19T06:14:15;32.75;;;12.00;;
43945;SDS011;29599;51.196;4.428;2022-08-19T06:16:43;20.43;;;11.43;;
43945;SDS011;29599;51.196;4.428;2022-08-19T06:19:14;25.10;;;11.80;;
43945;SDS011;29599;51.196;4.428;2022-08-19T06:21:42;24.08;;;11.23;;
43945;SDS011;29599;51.196;4.428;2022-08-19T06:24:11;21.23;;;10.68;;
43945;SDS011;29599;51.196;4.428;2022-08-19T06:26:39;18.92;;;10.88;;
43945;SDS011;29599;51.196;4.428;2022-08-19T06:29:07;22.58;;;10.25;;
43945;SDS011;29599;51.196;4.428;2022-08-19T06:31:34;22.13;;;11.50;;
43945;SDS011;29599;51.196;4.428;2022-08-19T06:34:02;21.35;;;10.60;;
43945;SDS011;29599;51.196;4.428;2022-08-19T06:36:30;24.67;;;12.20;;
43945;SDS011;29599;51.196;4.428;2022-08-19T06:38:58;23.98;;;12.00;;
43945;SDS011;29599;51.196;4.428;2022-08-19T06:41:29;22.90;;;11.52;;
43945;SDS011;29599;51.196;4.428;2022-08-19T06:43:55;23.27;;;12.38;;
43945;SDS011;29599;51.196;4.428;2022-08-19T06:46:22;26.83;;;12.57;;
43945;SDS011;29599;51.196;4.428;2022-08-19T06:48:48;33.35;;;12.95;;
43945;SDS011;29599;51.196;4.428;2022-08-19T06:51:15;31.25;;;12.95;;
43945;SDS011;29599;51.196;4.428;2022-08-19T06:53:44;24.73;;;12.40;;
43945;SDS011;29599;51.196;4.428;2022-08-19T06:56:14;22.92;;;11.60;;
43945;SDS011;29599;51.196;4.428;2022-08-19T06:58:41;25.20;;;11.85;;
43945;SDS011;29599;51.196;4.428;2022-08-19T07:01:07;25.17;;;12.25;;
43945;SDS011;29599;51.196;4.428;2022-08-19T07:03:34;26.77;;;12.75;;
43945;SDS011;29599;51.196;4.428;2022-08-19T07:06:04;22.40;;;11.93;;
43945;SDS011;29599;51.196;4.428;2022-08-19T07:08:33;19.48;;;11.95;;
43945;SDS011;29599;51.196;4.428;2022-08-19T07:10:59;31.30;;;12.55;;
43945;SDS011;29599;51.196;4.428;2022-08-19T07:13:25;27.40;;;12.93;;
43945;SDS011;29599;51.196;4.428;2022-08-19T07:15:50;27.38;;;11.25;;
43945;SDS011;29599;51.196;4.428;2022-08-19T07:18:19;21.23;;;11.18;;
43945;SDS011;29599;51.196;4.428;2022-08-19T07:20:46;21.58;;;10.65;;
43945;SDS011;29599;51.196;4.428;2022-08-19T07:23:13;23.77;;;11.23;;
43945;SDS011;29599;51.196;4.428;2022-08-19T07:25:39;26.73;;;11.23;;
43945;SDS011;29599;51.196;4.428;2022-08-19T07:28:05;20.90;;;11.68;;
43945;SDS011;29599;51.196;4.428;2022-08-19T07:30:32;22.90;;;13.02;;
43945;SDS011;29599;51.196;4.428;2022-08-19T07:33:00;20.05;;;12.48;;
43945;SDS011;29599;51.196;4.428;2022-08-19T07:35:26;22.73;;;11.30;;
43945;SDS011;29599;51.196;4.428;2022-08-19T07:37:53;28.30;;;13.45;;
43945;SDS011;29599;51.196;4.428;2022-08-19T07:40:18;26.35;;;13.23;;
43945;SDS011;29599;51.196;4.428;2022-08-19T07:42:44;28.25;;;15.55;;
43945;SDS011;29599;51.196;4.428;2022-08-19T07:45:10;26.55;;;15.27;;
43945;SDS011;29599;51.196;4.428;2022-08-19T07:47:35;28.77;;;15.20;;
43945;SDS011;29599;51.196;4.428;2022-08-19T07:50:01;25.95;;;13.93;;
43945;SDS011;29599;51.196;4.428;2022-08-19T07:52:29;28.33;;;14.32;;
43945;SDS011;29599;51.196;4.428;2022-08-19T07:54:55;22.05;;;13.18;;
43945;SDS011;29599;51.196;4.428;2022-08-19T07:57:20;21.48;;;13.98;;
43945;SDS011;29599;51.196;4.428;2022-08-19T07:59:56;27.55;;;14.52;;
43945;SDS011;29599;51.196;4.428;2022-08-19T08:02:21;21.63;;;13.63;;
43945;SDS011;29599;51.196;4.428;2022-08-19T08:04:47;18.58;;;11.80;;
43945;SDS011;29599;51.196;4.428;2022-08-19T08:07:31;19.88;;;11.82;;
43945;SDS011;29599;51.196;4.428;2022-08-19T08:10:15;24.55;;;14.52;;
43945;SDS011;29599;51.196;4.428;2022-08-19T08:12:41;23.48;;;13.82;;
43945;SDS011;29599;51.196;4.428;2022-08-19T08:15:08;24.27;;;14.65;;
43945;SDS011;29599;51.196;4.428;2022-08-19T08:17:37;24.60;;;14.88;;
43945;SDS011;29599;51.196;4.428;2022-08-19T08:20:04;27.95;;;16.92;;
43945;SDS011;29599;51.196;4.428;2022-08-19T08:22:34;25.67;;;17.33;;
43945;SDS011;29599;51.196;4.428;2022-08-19T08:25:19;29.00;;;16.15;;
43945;SDS011;29599;51.196;4.428;2022-08-19T08:27:47;20.98;;;13.63;;
43945;SDS011;29599;51.196;4.428;2022-08-19T08:30:19;20.05;;;13.32;;
43945;SDS011;29599;51.196;4.428;2022-08-19T08:32:46;20.85;;;13.15;;
43945;SDS011;29599;51.196;4.428;2022-08-19T08:35:14;20.92;;;11.90;;
43945;SDS011;29599;51.196;4.428;2022-08-19T08:37:42;20.85;;;12.52;;
43945;SDS011;29599;51.196;4.428;2022-08-19T08:42:54;21.33;;;11.73;;
43945;SDS011;29599;51.196;4.428;2022-08-19T08:45:33;17.00;;;10.70;;
43945;SDS011;29599;51.196;4.428;2022-08-19T08:48:16;16.77;;;9.45;;
43945;SDS011;29599;51.196;4.428;2022-08-19T08:50:47;14.73;;;9.18;;
43945;SDS011;29599;51.196;4.428;2022-08-19T08:53:18;12.38;;;8.38;;
43945;SDS011;29599;51.196;4.428;2022-08-19T08:55:45;15.50;;;8.40;;
43945;SDS011;29599;51.196;4.428;2022-08-19T08:58:13;20.65;;;9.05;;
43945;SDS011;29599;51.196;4.428;2022-08-19T09:00:44;16.52;;;9.05;;
43945;SDS011;29599;51.196;4.428;2022-08-19T09:03:21;18.73;;;9.23;;
43945;SDS011;29599;51.196;4.428;2022-08-19T09:08:22;17.33;;;8.32;;
43945;SDS011;29599;51.196;4.428;2022-08-19T09:11:00;13.57;;;7.65;;
43945;SDS011;29599;51.196;4.428;2022-08-19T09:13:45;23.67;;;8.70;;
43945;SDS011;29599;51.196;4.428;2022-08-19T09:16:32;10.90;;;7.43;;
43945;SDS011;29599;51.196;4.428;2022-08-19T09:19:03;14.98;;;8.15;;
43945;SDS011;29599;51.196;4.428;2022-08-19T09:21:30;14.43;;;6.60;;
43945;SDS011;29599;51.196;4.428;2022-08-19T09:23:57;15.45;;;7.25;;
43945;SDS011;29599;51.196;4.428;2022-08-19T09:26:23;15.80;;;7.70;;
43945;SDS011;29599;51.196;4.428;2022-08-19T09:28:50;13.77;;;7.72;;
43945;SDS011;29599;51.196;4.428;2022-08-19T09:31:24;17.02;;;7.75;;
43945;SDS011;29599;51.196;4.428;2022-08-19T09:33:53;14.48;;;7.50;;
43945;SDS011;29599;51.196;4.428;2022-08-19T09:36:22;16.00;;;8.45;;
43945;SDS011;29599;51.196;4.428;2022-08-19T09:38:49;21.55;;;9.02;;
43945;SDS011;29599;51.196;4.428;2022-08-19T09:41:18;18.88;;;8.60;;
43945;SDS011;29599;51.196;4.428;2022-08-19T09:43:45;17.50;;;9.93;;
43945;SDS011;29599;51.196;4.428;2022-08-19T09:46:12;18.30;;;9.68;;
43945;SDS011;29599;51.196;4.428;2022-08-19T09:48:39;21.58;;;10.85;;
43945;SDS011;29599;51.196;4.428;2022-08-19T09:51:06;14.30;;;9.15;;
43945;SDS011;29599;51.196;4.428;2022-08-19T09:53:35;21.77;;;9.03;;
43945;SDS011;29599;51.196;4.428;2022-08-19T09:56:02;32.13;;;18.98;;
43945;SDS011;29599;51.196;4.428;2022-08-19T09:58:29;106.90;;;73.45;;
43945;SDS011;29599;51.196;4.428;2022-08-19T10:00:55;37.55;;;21.08;;
43945;SDS011;29599;51.196;4.428;2022-08-19T10:03:23;43.50;;;18.63;;
43945;SDS011;29599;51.196;4.428;2022-08-19T10:05:49;26.83;;;13.60;;
43945;SDS011;29599;51.196;4.428;2022-08-19T10:11:06;21.67;;;9.80;;
43945;SDS011;29599;51.196;4.428;2022-08-19T10:13:33;22.23;;;10.43;;
43945;SDS011;29599;51.196;4.428;2022-08-19T10:16:05;18.75;;;8.95;;
43945;SDS011;29599;51.196;4.428;2022-08-19T10:18:33;16.40;;;8.52;;
43945;SDS011;29599;51.196;4.428;2022-08-19T10:21:07;16.60;;;8.68;;
43945;SDS011;29599;51.196;4.428;2022-08-19T10:23:35;14.95;;;7.40;;
43945;SDS011;29599;51.196;4.428;2022-08-19T10:26:03;21.20;;;8.32;;
43945;SDS011;29599;51.196;4.428;2022-08-19T10:28:30;17.42;;;7.95;;
43945;SDS011;29599;51.196;4.428;2022-08-19T10:31:06;13.55;;;7.75;;
43945;SDS011;29599;51.196;4.428;2022-08-19T10:33:37;16.00;;;7.72;;
43945;SDS011;29599;51.196;4.428;2022-08-19T10:36:05;13.75;;;6.97;;
43945;SDS011;29599;51.196;4.428;2022-08-19T10:38:33;17.48;;;7.38;;
43945;SDS011;29599;51.196;4.428;2022-08-19T10:41:06;16.63;;;7.35;;
43945;SDS011;29599;51.196;4.428;2022-08-19T10:43:39;13.93;;;7.15;;
43945;SDS011;29599;51.196;4.428;2022-08-19T10:46:06;15.38;;;7.57;;
43945;SDS011;29599;51.196;4.428;2022-08-19T10:48:33;18.50;;;7.32;;
43945;SDS011;29599;51.196;4.428;2022-08-19T10:50:59;23.67;;;9.02;;
43945;SDS011;29599;51.196;4.428;2022-08-19T10:53:44;14.75;;;7.90;;
43945;SDS011;29599;51.196;4.428;2022-08-19T10:56:09;16.40;;;7.70;;
43945;SDS011;29599;51.196;4.428;2022-08-19T10:58:54;14.73;;;8.07;;
43945;SDS011;29599;51.196;4.428;2022-08-19T11:01:21;19.63;;;8.80;;
43945;SDS011;29599;51.196;4.428;2022-08-19T11:03:47;18.98;;;9.18;;
43945;SDS011;29599;51.196;4.428;2022-08-19T11:06:12;15.63;;;7.85;;
43945;SDS011;29599;51.196;4.428;2022-08-19T11:08:38;18.48;;;8.63;;
43945;SDS011;29599;51.196;4.428;2022-08-19T11:11:05;16.92;;;9.07;;
43945;SDS011;29599;51.196;4.428;2022-08-19T11:13:32;18.52;;;9.27;;
43945;SDS011;29599;51.196;4.428;2022-08-19T11:16:02;17.33;;;8.45;;
43945;SDS011;29599;51.196;4.428;2022-08-19T11:18:32;15.65;;;8.35;;
43945;SDS011;29599;51.196;4.428;2022-08-19T11:21:33;15.07;;;8.15;;
43945;SDS011;29599;51.196;4.428;2022-08-19T11:23:53;14.93;;;8.48;;
43945;SDS011;29599;51.196;4.428;2022-08-19T11:26:22;14.75;;;7.63;;
43945;SDS011;29599;51.196;4.428;2022-08-19T11:28:48;16.20;;;7.75;;
43945;SDS011;29599;51.196;4.428;2022-08-19T11:31:17;14.50;;;8.18;;
43945;SDS011;29599;51.196;4.428;2022-08-19T11:33:45;16.60;;;8.30;;
43945;SDS011;29599;51.196;4.428;2022-08-19T11:36:11;12.60;;;7.43;;
43945;SDS011;29599;51.196;4.428;2022-08-19T11:38:37;12.48;;;7.43;;
43945;SDS011;29599;51.196;4.428;2022-08-19T11:41:05;13.60;;;6.30;;
43945;SDS011;29599;51.196;4.428;2022-08-19T11:43:32;11.20;;;6.73;;
43945;SDS011;29599;51.196;4.428;2022-08-19T11:45:59;11.35;;;7.07;;
43945;SDS011;29599;51.196;4.428;2022-08-19T11:48:28;10.75;;;6.20;;
43945;SDS011;29599;51.196;4.428;2022-08-19T11:50:54;8.75;;;6.22;;
43945;SDS011;29599;51.196;4.428;2022-08-19T11:53:22;19.88;;;6.28;;
43945;SDS011;29599;51.196;4.428;2022-08-19T11:55:48;14.30;;;7.95;;
43945;SDS011;29599;51.196;4.428;2022-08-19T11:58:18;8.73;;;6.43;;
43945;SDS011;29599;51.196;4.428;2022-08-19T12:00:44;8.90;;;6.00;;
43945;SDS011;29599;51.196;4.428;2022-08-19T12:03:10;9.68;;;5.28;;
43945;SDS011;29599;51.196;4.428;2022-08-19T12:05:38;7.85;;;4.85;;
43945;SDS011;29599;51.196;4.428;2022-08-19T12:08:04;10.40;;;4.93;;
43945;SDS011;29599;51.196;4.428;2022-08-19T12:10:30;6.47;;;4.50;;
43945;SDS011;29599;51.196;4.428;2022-08-19T12:12:56;9.23;;;5.10;;
43945;SDS011;29599;51.196;4.428;2022-08-19T12:15:22;11.18;;;5.22;;
43945;SDS011;29599;51.196;4.428;2022-08-19T12:17:48;6.18;;;4.10;;
43945;SDS011;29599;51.196;4.428;2022-08-19T12:20:14;6.65;;;4.05;;
43945;SDS011;29599;51.196;4.428;2022-08-19T12:22:42;6.97;;;4.53;;
43945;SDS011;29599;51.196;4.428;2022-08-19T12:25:09;8.85;;;4.47;;
43945;SDS011;29599;51.196;4.428;2022-08-19T12:27:36;7.72;;;3.95;;
43945;SDS011;29599;51.196;4.428;2022-08-19T12:30:03;4.93;;;3.40;;
43945;SDS011;29599;51.196;4.428;2022-08-19T12:32:30;6.55;;;3.70;;
43945;SDS011;29599;51.196;4.428;2022-08-19T12:34:55;6.50;;;3.72;;
43945;SDS011;29599;51.196;4.428;2022-08-19T12:37:21;4.20;;;3.45;;
43945;SDS011;29599;51.196;4.428;2022-08-19T12:39:46;5.65;;;3.55;;
43945;SDS011;29599;51.196;4.428;2022-08-19T12:42:13;8.18;;;3.50;;
43945;SDS011;29599;51.196;4.428;2022-08-19T12:44:40;7.15;;;3.22;;
43945;SDS011;29599;51.196;4.428;2022-08-19T12:47:07;4.72;;;3.00;;
43945;SDS011;29599;51.196;4.428;2022-08-19T12:49:33;3.45;;;2.75;;
43945;SDS011;29599;51.196;4.428;2022-08-19T12:52:01;6.65;;;2.90;;
43945;SDS011;29599;51.196;4.428;2022-08-19T12:54:28;5.22;;;2.80;;
43945;SDS011;29599;51.196;4.428;2022-08-19T12:56:55;5.60;;;2.58;;
43945;SDS011;29599;51.196;4.428;2022-08-19T12:59:22;5.30;;;2.75;;
43945;SDS011;29599;51.196;4.428;2022-08-19T13:01:47;9.57;;;3.15;;
43945;SDS011;29599;51.196;4.428;2022-08-19T13:04:13;5.20;;;2.72;;
43945;SDS011;29599;51.196;4.428;2022-08-19T13:06:41;3.70;;;2.60;;
43945;SDS011;29599;51.196;4.428;2022-08-19T13:09:07;4.70;;;2.97;;
43945;SDS011;29599;51.196;4.428;2022-08-19T13:11:33;4.22;;;2.60;;
43945;SDS011;29599;51.196;4.428;2022-08-19T13:13:59;4.68;;;2.03;;
43945;SDS011;29599;51.196;4.428;2022-08-19T13:16:26;4.63;;;2.58;;
43945;SDS011;29599;51.196;4.428;2022-08-19T13:18:53;5.30;;;2.30;;
43945;SDS011;29599;51.196;4.428;2022-08-19T13:21:20;3.95;;;2.08;;
43945;SDS011;29599;51.196;4.428;2022-08-19T13:23:48;5.53;;;2.33;;
43945;SDS011;29599;51.196;4.428;2022-08-19T13:26:15;5.15;;;2.65;;
43945;SDS011;29599;51.196;4.428;2022-08-19T13:28:41;3.20;;;1.92;;
43945;SDS011;29599;51.196;4.428;2022-08-19T13:31:27;3.97;;;2.33;;
43945;SDS011;29599;51.196;4.428;2022-08-19T13:34:13;6.45;;;2.00;;
43945;SDS011;29599;51.196;4.428;2022-08-19T13:36:40;5.55;;;2.53;;
43945;SDS011;29599;51.196;4.428;2022-08-19T13:39:05;4.80;;;2.65;;
43945;SDS011;29599;51.196;4.428;2022-08-19T13:41:33;4.72;;;2.00;;
43945;SDS011;29599;51.196;4.428;2022-08-19T13:43:59;4.28;;;2.25;;
43945;SDS011;29599;51.196;4.428;2022-08-19T13:46:26;5.90;;;2.30;;
43945;SDS011;29599;51.196;4.428;2022-08-19T13:48:52;6.05;;;2.70;;
43945;SDS011;29599;51.196;4.428;2022-08-19T13:51:18;4.93;;;2.35;;
43945;SDS011;29599;51.196;4.428;2022-08-19T13:53:43;4.22;;;2.65;;
43945;SDS011;29599;51.196;4.428;2022-08-19T13:56:10;4.18;;;2.20;;
43945;SDS011;29599;51.196;4.428;2022-08-19T13:58:38;33.72;;;2.38;;
43945;SDS011;29599;51.196;4.428;2022-08-19T14:01:04;6.97;;;2.47;;
43945;SDS011;29599;51.196;4.428;2022-08-19T14:03:31;6.22;;;3.00;;
43945;SDS011;29599;51.196;4.428;2022-08-19T14:05:57;4.18;;;2.78;;
43945;SDS011;29599;51.196;4.428;2022-08-19T14:08:23;5.00;;;3.05;;
43945;SDS011;29599;51.196;4.428;2022-08-19T14:10:49;5.93;;;3.08;;
43945;SDS011;29599;51.196;4.428;2022-08-19T14:13:16;3.83;;;2.63;;
43945;SDS011;29599;51.196;4.428;2022-08-19T14:15:45;4.75;;;3.13;;
43945;SDS011;29599;51.196;4.428;2022-08-19T14:18:12;3.67;;;2.53;;
43945;SDS011;29599;51.196;4.428;2022-08-19T14:20:39;6.95;;;3.28;;
43945;SDS011;29599;51.196;4.428;2022-08-19T14:23:05;2.83;;;2.47;;
43945;SDS011;29599;51.196;4.428;2022-08-19T14:25:30;4.70;;;2.67;;
43945;SDS011;29599;51.196;4.428;2022-08-19T14:27:56;4.15;;;2.40;;
43945;SDS011;29599;51.196;4.428;2022-08-19T14:30:24;3.53;;;2.55;;
43945;SDS011;29599;51.196;4.428;2022-08-19T14:32:53;5.28;;;2.70;;
43945;SDS011;29599;51.196;4.428;2022-08-19T14:35:20;3.25;;;2.58;;
43945;SDS011;29599;51.196;4.428;2022-08-19T14:37:47;4.30;;;2.60;;
43945;SDS011;29599;51.196;4.428;2022-08-19T14:40:14;4.32;;;2.38;;
43945;SDS011;29599;51.196;4.428;2022-08-19T14:42:42;4.32;;;1.90;;
43945;SDS011;29599;51.196;4.428;2022-08-19T14:45:09;4.53;;;1.63;;
43945;SDS011;29599;51.196;4.428;2022-08-19T14:47:35;1.58;;;1.23;;
43945;SDS011;29599;51.196;4.428;2022-08-19T14:50:01;2.38;;;1.73;;
43945;SDS011;29599;51.196;4.428;2022-08-19T14:52:27;5.68;;;1.45;;